Time;durP1;ratioP1;P1;durP2;ratioP2;P2;SDS_P1;SDS_P2;PMS_P1;PMS_P2;Temp;Humidity;BMP_temperature;BMP_pressure;BME280_temperature;BME280_humidity;BME280_pressure;Samples;Min_cycle;Max_cycle;Signal;HPM_P1;HPM_P2
2023/05/27 00:00:01;;;;;;;20.20;7.10;;;9.60;99.90;;;;;;5018726;28;20176;-85
2023/05/27 00:02:27;;;;;;;19.60;7.32;;;9.60;99.90;;;;;;5018511;28;20206;-85
2023/05/27 00:04:53;;;;;;;17.08;7.22;;;9.70;99.90;;;;;;5018213;28;20664;-86
2023/05/27 00:07:18;;;;;;;17.48;7.15;;;9.70;99.90;;;;;;5019810;28;20180;-86
2023/05/27 00:09:44;;;;;;;15.27;6.72;;;9.70;99.90;;;;;;5018476;28;20203;-86
2023/05/27 00:12:10;;;;;;;18.95;6.50;;;9.80;99.90;;;;;;5018096;28;20180;-86
2023/05/27 00:14:35;;;;;;;21.83;7.18;;;9.60;99.90;;;;;;5018737;28;20195;-86
2023/05/27 00:17:03;;;;;;;15.45;6.20;;;9.40;99.90;;;;;;5018310;28;20636;-86
2023/05/27 00:19:30;;;;;;;16.95;6.80;;;9.40;99.90;;;;;;5018041;28;20212;-86
2023/05/27 00:21:56;;;;;;;16.00;6.65;;;9.30;99.90;;;;;;5017706;28;20291;-86
2023/05/27 00:24:22;;;;;;;17.80;6.47;;;9.30;99.90;;;;;;5017707;28;20203;-86
2023/05/27 00:26:49;;;;;;;11.27;6.47;;;9.10;99.90;;;;;;5019009;28;20547;-86
2023/05/27 00:29:16;;;;;;;14.20;6.78;;;8.90;99.90;;;;;;5017788;28;20199;-86
2023/05/27 00:31:42;;;;;;;11.75;6.40;;;8.90;99.90;;;;;;5022356;28;20176;-86
2023/05/27 00:34:08;;;;;;;16.98;6.82;;;9.00;99.90;;;;;;5027555;28;20228;-86
2023/05/27 00:36:33;;;;;;;20.10;7.28;;;9.00;99.90;;;;;;5021528;28;20637;-86
2023/05/27 00:39:00;;;;;;;15.82;5.78;;;9.00;99.90;;;;;;5019922;28;20172;-86
2023/05/27 00:41:26;;;;;;;17.25;6.43;;;8.90;99.90;;;;;;5017802;28;20180;-85
2023/05/27 00:43:53;;;;;;;20.15;7.00;;;8.90;99.90;;;;;;5018086;28;20195;-86
2023/05/27 00:46:19;;;;;;;16.70;7.28;;;8.90;99.90;;;;;;5017369;28;20195;-85
2023/05/27 00:48:46;;;;;;;16.58;6.60;;;8.70;99.90;;;;;;5017146;28;20214;-85
2023/05/27 00:51:12;;;;;;;16.90;6.85;;;8.60;99.90;;;;;;5018112;28;20183;-85
2023/05/27 00:53:42;;;;;;;19.23;7.05;;;8.60;99.90;;;;;;5017258;28;20179;-86
2023/05/27 00:56:09;;;;;;;14.50;6.20;;;8.60;99.90;;;;;;5017309;28;20183;-85
2023/05/27 00:58:36;;;;;;;15.45;6.88;;;8.70;99.90;;;;;;5017488;28;20183;-85
2023/05/27 01:01:03;;;;;;;16.60;6.82;;;8.80;99.90;;;;;;5017262;28;20199;-85
2023/05/27 01:03:32;;;;;;;18.52;7.07;;;8.80;99.90;;;;;;5017119;28;20191;-86
2023/05/27 01:06:25;;;;;;;18.30;7.33;;;8.80;99.90;;;;;;5017343;28;20274;-86
2023/05/27 01:09:34;;;;;;;19.23;7.68;;;8.90;99.90;;;;;;5017609;28;20588;-85
2023/05/27 01:12:05;;;;;;;13.57;6.33;;;8.90;99.90;;;;;;5016954;28;20175;-85
2023/05/27 01:14:33;;;;;;;14.88;6.78;;;8.80;99.90;;;;;;5017812;28;20191;-86
2023/05/27 01:17:01;;;;;;;16.52;7.28;;;8.80;99.90;;;;;;5016280;28;20247;-86
2023/05/27 01:19:48;;;;;;;11.77;6.77;;;8.80;99.90;;;;;;5017175;28;20230;-86
2023/05/27 01:22:15;;;;;;;13.10;6.30;;;8.70;99.90;;;;;;5016827;28;20172;-86
2023/05/27 01:24:41;;;;;;;16.83;7.10;;;8.70;99.90;;;;;;5016170;28;20199;-86
2023/05/27 01:27:08;;;;;;;17.10;7.20;;;8.70;99.90;;;;;;5016502;28;20179;-86
2023/05/27 01:29:35;;;;;;;18.25;7.93;;;8.60;99.90;;;;;;5016432;28;20230;-86
2023/05/27 01:32:24;;;;;;;16.07;7.60;;;8.60;99.90;;;;;;5016481;28;20179;-86
2023/05/27 01:35:08;;;;;;;20.08;7.30;;;8.60;99.90;;;;;;5016669;28;20619;-86
2023/05/27 01:37:40;;;;;;;17.13;7.17;;;8.60;99.90;;;;;;5016198;28;20227;-86
2023/05/27 01:40:08;;;;;;;17.00;7.20;;;8.60;99.90;;;;;;5017305;28;20203;-86
2023/05/27 01:42:39;;;;;;;20.50;7.43;;;8.60;99.90;;;;;;5016723;28;20180;-86
2023/05/27 01:45:07;;;;;;;14.27;6.77;;;8.50;99.90;;;;;;5016338;28;20214;-86
2023/05/27 01:47:33;;;;;;;22.37;7.37;;;8.40;99.90;;;;;;5016329;28;20191;-86
2023/05/27 01:49:59;;;;;;;18.97;7.97;;;8.20;99.90;;;;;;5017485;28;20202;-86
2023/05/27 01:52:25;;;;;;;13.63;6.80;;;8.10;99.90;;;;;;5016103;28;20184;-86
2023/05/27 01:54:51;;;;;;;17.77;7.50;;;8.00;99.90;;;;;;5016300;28;20199;-86
2023/05/27 01:57:20;;;;;;;18.43;7.10;;;7.90;99.90;;;;;;5016246;28;20274;-85
2023/05/27 01:59:46;;;;;;;14.03;6.47;;;7.70;99.90;;;;;;5016567;28;20179;-86
2023/05/27 02:02:11;;;;;;;12.17;6.33;;;7.60;99.90;;;;;;5016032;28;20251;-86
2023/05/27 02:04:37;;;;;;;14.83;7.23;;;7.50;99.90;;;;;;5015802;28;20214;-86
2023/05/27 02:07:03;;;;;;;14.53;6.73;;;7.50;99.90;;;;;;5016433;28;20183;-85
2023/05/27 02:09:29;;;;;;;12.97;6.37;;;7.40;99.90;;;;;;5016182;28;20195;-85
2023/05/27 02:11:55;;;;;;;11.57;6.47;;;7.30;99.90;;;;;;5015926;28;20525;-85
2023/05/27 02:14:20;;;;;;;17.27;6.77;;;7.30;99.90;;;;;;5015036;28;20196;-86
2023/05/27 02:16:48;;;;;;;15.90;6.70;;;7.40;99.90;;;;;;5015935;28;20652;-86
2023/05/27 02:19:14;;;;;;;17.53;8.13;;;7.50;99.90;;;;;;5015661;28;20208;-85
2023/05/27 02:21:40;;;;;;;16.13;7.03;;;7.50;99.90;;;;;;5017314;28;20516;-85
2023/05/27 02:24:06;;;;;;;16.40;6.93;;;7.60;99.90;;;;;;5015728;28;20204;-86
2023/05/27 02:26:32;;;;;;;14.47;6.50;;;7.40;99.90;;;;;;5016609;28;20547;-88
2023/05/27 02:28:57;;;;;;;13.27;6.97;;;7.30;99.90;;;;;;5018401;28;20199;-89
2023/05/27 02:31:23;;;;;;;17.07;6.53;;;7.20;99.90;;;;;;5016723;28;20587;-89
2023/05/27 02:33:49;;;;;;;12.93;6.67;;;7.20;99.90;;;;;;5016561;28;20559;-89
2023/05/27 02:36:15;;;;;;;15.73;6.73;;;7.10;99.90;;;;;;5016555;28;20190;-88
2023/05/27 02:38:41;;;;;;;14.77;6.97;;;7.00;99.90;;;;;;5016744;28;20186;-89
2023/05/27 02:41:06;;;;;;;14.10;6.73;;;6.90;99.90;;;;;;5017283;28;20176;-89
2023/05/27 02:43:32;;;;;;;18.67;7.07;;;6.90;99.90;;;;;;5016427;28;20546;-88
2023/05/27 02:45:58;;;;;;;13.40;7.70;;;6.90;99.90;;;;;;5016927;28;20180;-88
2023/05/27 02:48:23;;;;;;;11.60;7.07;;;6.80;99.90;;;;;;5016608;28;20241;-89
2023/05/27 02:50:49;;;;;;;11.40;6.80;;;6.80;99.90;;;;;;5017222;28;20294;-89
2023/05/27 02:53:15;;;;;;;16.40;6.73;;;6.90;99.90;;;;;;5018803;28;20180;-89
2023/05/27 02:55:41;;;;;;;15.67;6.60;;;7.00;99.90;;;;;;5017491;28;20202;-89
2023/05/27 02:58:07;;;;;;;12.03;7.63;;;7.00;99.90;;;;;;5016948;28;20184;-89
2023/05/27 03:00:34;;;;;;;13.53;7.77;;;7.00;99.90;;;;;;5016358;28;20287;-89
2023/05/27 03:03:00;;;;;;;13.70;6.83;;;6.90;99.90;;;;;;5016622;28;20184;-89
2023/05/27 03:05:26;;;;;;;14.53;7.20;;;6.80;99.90;;;;;;5015969;28;20298;-89
2023/05/27 03:07:51;;;;;;;15.33;7.70;;;6.70;99.90;;;;;;5016229;28;20192;-89
2023/05/27 03:10:17;;;;;;;13.23;7.73;;;6.70;99.90;;;;;;5015732;28;20298;-88
2023/05/27 03:12:43;;;;;;;15.83;8.00;;;6.70;99.90;;;;;;5017225;28;20183;-88
2023/05/27 03:15:09;;;;;;;16.00;7.40;;;6.90;99.90;;;;;;5017410;28;20187;-88
2023/05/27 03:17:38;;;;;;;15.10;7.43;;;6.90;99.90;;;;;;5015930;28;20176;-88
2023/05/27 03:20:07;;;;;;;18.97;7.27;;;6.90;99.90;;;;;;5015916;28;20184;-88
2023/05/27 03:22:34;;;;;;;10.90;6.80;;;6.90;99.90;;;;;;5017249;28;20688;-88
2023/05/27 03:25:00;;;;;;;13.57;7.77;;;7.00;99.90;;;;;;5016115;28;20223;-86
2023/05/27 03:27:25;;;;;;;15.50;7.53;;;7.00;99.90;;;;;;5018543;28;20175;-87
2023/05/27 03:29:51;;;;;;;15.60;7.43;;;7.00;99.90;;;;;;5020004;28;20206;-87
2023/05/27 03:32:17;;;;;;;11.63;8.07;;;7.10;99.90;;;;;;5018614;28;20179;-86
2023/05/27 03:34:43;;;;;;;14.67;7.50;;;7.10;99.90;;;;;;5018369;28;20623;-87
2023/05/27 03:37:09;;;;;;;18.27;7.00;;;7.20;99.90;;;;;;5018891;28;20611;-87
2023/05/27 03:39:35;;;;;;;13.77;8.00;;;7.10;99.90;;;;;;5018522;28;20184;-87
2023/05/27 03:42:01;;;;;;;15.60;7.70;;;7.20;99.90;;;;;;5019803;28;20183;-87
2023/05/27 03:44:26;;;;;;;15.43;7.70;;;7.20;99.90;;;;;;5018698;28;20337;-87
2023/05/27 03:46:52;;;;;;;17.30;7.77;;;7.20;99.90;;;;;;5019105;28;20203;-87
2023/05/27 03:49:18;;;;;;;14.27;7.30;;;7.20;99.90;;;;;;5019166;28;20199;-87
2023/05/27 03:51:43;;;;;;;16.93;8.17;;;7.20;99.90;;;;;;5018834;28;20215;-87
2023/05/27 03:54:09;;;;;;;22.40;8.53;;;7.20;99.90;;;;;;5018489;28;20286;-86
2023/05/27 03:56:35;;;;;;;17.83;8.70;;;7.20;99.90;;;;;;5019354;28;20214;-86
2023/05/27 03:59:01;;;;;;;20.63;9.43;;;7.20;99.90;;;;;;5019108;28;20179;-86
2023/05/27 04:01:27;;;;;;;17.93;8.93;;;7.20;99.90;;;;;;5019950;28;20187;-87
2023/05/27 04:03:53;;;;;;;22.23;9.10;;;7.30;99.90;;;;;;5018659;28;20238;-86
2023/05/27 04:06:19;;;;;;;22.37;9.57;;;7.30;99.90;;;;;;5018582;28;20180;-86
2023/05/27 04:08:45;;;;;;;16.63;8.80;;;7.20;99.90;;;;;;5019162;28;20198;-87
2023/05/27 04:11:15;;;;;;;14.00;8.30;;;7.10;99.90;;;;;;5018713;28;20263;-87
2023/05/27 04:13:41;;;;;;;13.20;7.80;;;7.00;99.90;;;;;;5018784;28;20590;-88
2023/05/27 04:16:07;;;;;;;12.60;7.30;;;7.00;99.90;;;;;;5017979;28;20270;-87
2023/05/27 04:18:33;;;;;;;12.87;6.93;;;6.80;99.90;;;;;;5017993;28;20254;-87
2023/05/27 04:21:00;;;;;;;13.10;6.93;;;6.70;99.90;;;;;;5017920;28;20644;-87
2023/05/27 04:23:25;;;;;;;11.90;7.30;;;6.60;99.90;;;;;;5018181;28;20176;-86
2023/05/27 04:25:52;;;;;;;14.90;7.43;;;6.50;99.90;;;;;;5018920;28;20190;-86
2023/05/27 04:28:18;;;;;;;17.50;7.83;;;6.50;99.90;;;;;;5019044;28;20179;-86
2023/05/27 04:30:45;;;;;;;12.87;7.17;;;6.50;99.90;;;;;;5018064;28;20200;-87
2023/05/27 04:33:13;;;;;;;13.33;7.17;;;6.50;99.90;;;;;;5018969;28;20350;-87
2023/05/27 04:35:40;;;;;;;11.23;7.47;;;6.60;99.90;;;;;;5018218;28;20200;-86
2023/05/27 04:38:07;;;;;;;14.27;7.80;;;6.70;99.90;;;;;;5017477;28;20180;-87
2023/05/27 04:40:34;;;;;;;14.07;7.23;;;6.90;99.90;;;;;;5019500;28;20183;-87
2023/05/27 04:43:00;;;;;;;21.57;8.20;;;7.00;99.90;;;;;;5017812;28;20555;-87
2023/05/27 04:45:26;;;;;;;15.87;7.43;;;7.10;99.90;;;;;;5019119;28;20664;-87
2023/05/27 04:47:52;;;;;;;14.33;7.83;;;7.20;99.90;;;;;;5019530;28;20188;-87
2023/05/27 04:50:18;;;;;;;13.83;9.03;;;7.30;99.90;;;;;;5017961;28;20222;-87
2023/05/27 04:52:44;;;;;;;17.37;8.13;;;7.50;99.90;;;;;;5019535;28;20175;-86
2023/05/27 04:55:11;;;;;;;17.23;8.43;;;7.60;99.90;;;;;;5019011;28;20555;-87
2023/05/27 04:57:40;;;;;;;17.60;8.50;;;7.70;99.90;;;;;;5017759;28;20186;-86
2023/05/27 05:02:39;;;;;;;14.07;8.27;;;7.90;99.90;;;;;;5019187;28;20184;-86
2023/05/27 05:05:09;;;;;;;16.90;9.43;;;8.00;99.90;;;;;;5017638;28;20199;-87
2023/05/27 05:07:37;;;;;;;19.73;9.33;;;8.10;99.90;;;;;;5016740;28;20236;-86
2023/05/27 05:10:05;;;;;;;21.63;10.73;;;8.20;99.90;;;;;;5016134;28;20191;-86
2023/05/27 05:12:30;;;;;;;20.60;8.80;;;8.20;99.90;;;;;;5014655;28;20691;-86
2023/05/27 05:14:57;;;;;;;20.57;8.63;;;8.30;99.90;;;;;;5014360;28;20207;-86
2023/05/27 05:17:24;;;;;;;22.00;9.30;;;8.40;99.90;;;;;;5015530;28;20254;-86
2023/05/27 05:19:51;;;;;;;18.00;9.10;;;8.50;99.90;;;;;;5014155;28;20183;-86
2023/05/27 05:22:22;;;;;;;21.77;9.57;;;8.60;99.90;;;;;;5014203;28;20184;-86
2023/05/27 05:24:51;;;;;;;18.73;9.70;;;8.60;99.90;;;;;;5014362;28;20543;-86
2023/05/27 05:27:17;;;;;;;16.47;9.93;;;8.70;99.90;;;;;;5014575;28;20219;-86
2023/05/27 05:29:43;;;;;;;18.37;9.50;;;8.70;99.90;;;;;;5015951;28;20192;-86
2023/05/27 05:32:11;;;;;;;23.00;9.77;;;8.70;99.90;;;;;;5014567;28;20660;-87
2023/05/27 05:34:37;;;;;;;18.70;10.57;;;8.70;99.90;;;;;;5014581;28;20196;-86
2023/05/27 05:37:04;;;;;;;19.42;10.10;;;8.80;99.90;;;;;;5014836;28;20234;-87
2023/05/27 05:39:30;;;;;;;30.37;10.83;;;8.80;99.90;;;;;;5014493;28;20180;-86
2023/05/27 05:41:57;;;;;;;23.53;10.50;;;8.80;99.90;;;;;;5015914;28;20176;-86
2023/05/27 05:44:23;;;;;;;17.67;9.63;;;8.90;99.90;;;;;;5014600;28;20208;-86
2023/05/27 05:46:49;;;;;;;23.07;10.00;;;9.00;99.90;;;;;;5015105;28;20196;-86
2023/05/27 05:49:15;;;;;;;20.13;9.63;;;9.10;99.90;;;;;;5014443;28;20254;-86
2023/05/27 05:51:41;;;;;;;20.80;8.68;;;9.20;99.90;;;;;;5014406;28;20180;-86
2023/05/27 05:54:07;;;;;;;22.10;10.77;;;9.30;99.90;;;;;;5014413;28;20249;-86
2023/05/27 05:56:33;;;;;;;17.63;9.77;;;9.50;99.90;;;;;;5014453;28;20184;-86
2023/05/27 05:58:59;;;;;;;23.63;10.23;;;9.60;99.90;;;;;;5014145;28;20180;-86
2023/05/27 06:01:26;;;;;;;23.53;10.20;;;9.60;99.90;;;;;;5014348;28;20666;-87
2023/05/27 06:03:53;;;;;;;33.63;11.00;;;9.60;99.90;;;;;;5015281;28;20192;-86
2023/05/27 06:06:19;;;;;;;24.87;10.37;;;9.70;99.90;;;;;;5015625;28;20175;-87
2023/05/27 06:08:45;;;;;;;22.70;11.40;;;9.80;99.90;;;;;;5014615;28;20271;-87
2023/05/27 06:11:11;;;;;;;18.90;9.93;;;9.80;99.90;;;;;;5014122;28;20212;-87
2023/05/27 06:13:37;;;;;;;21.13;10.55;;;9.90;99.90;;;;;;5013744;28;20186;-87
2023/05/27 06:16:03;;;;;;;18.88;10.63;;;10.00;99.90;;;;;;5014426;28;20325;-87
2023/05/27 06:18:29;;;;;;;19.73;9.63;;;10.10;99.90;;;;;;5016542;28;20202;-87
2023/05/27 06:20:55;;;;;;;28.08;10.85;;;10.20;99.90;;;;;;5015407;28;20207;-87
2023/05/27 06:23:20;;;;;;;23.10;10.18;;;10.30;99.90;;;;;;5016031;28;20183;-87
2023/05/27 06:25:46;;;;;;;24.20;10.23;;;10.40;99.90;;;;;;5014052;28;20624;-87
2023/05/27 06:28:12;;;;;;;17.83;9.23;;;10.40;99.90;;;;;;5014394;28;20283;-87
2023/05/27 06:30:38;;;;;;;19.20;9.63;;;10.60;99.90;;;;;;5014784;28;20287;-86
2023/05/27 06:33:05;;;;;;;21.75;9.35;;;10.70;99.90;;;;;;5015722;28;20186;-86
2023/05/27 06:35:31;;;;;;;15.13;8.95;;;10.80;99.90;;;;;;5017125;28;20199;-86
2023/05/27 06:37:58;;;;;;;15.52;8.18;;;10.90;99.90;;;;;;5016490;28;20175;-87
2023/05/27 06:40:24;;;;;;;26.95;9.70;;;11.00;99.90;;;;;;5014738;28;20552;-87
2023/05/27 06:42:50;;;;;;;20.05;9.60;;;11.10;99.90;;;;;;5014511;28;20180;-87
2023/05/27 06:45:16;;;;;;;17.52;9.05;;;11.20;99.90;;;;;;5016173;28;20207;-86
2023/05/27 06:47:41;;;;;;;25.88;9.63;;;11.30;99.90;;;;;;5013737;28;20203;-86
2023/05/27 06:50:07;;;;;;;20.67;9.85;;;11.40;99.90;;;;;;5014891;28;20233;-86
2023/05/27 06:52:33;;;;;;;17.88;8.90;;;11.40;99.90;;;;;;5013897;28;20176;-86
2023/05/27 06:54:59;;;;;;;18.33;9.60;;;11.50;99.90;;;;;;5014423;28;20199;-86
2023/05/27 06:57:25;;;;;;;20.23;9.25;;;11.50;99.90;;;;;;5015927;28;20182;-86
2023/05/27 06:59:50;;;;;;;22.42;8.90;;;11.70;99.90;;;;;;5015019;28;20207;-86
2023/05/27 07:02:16;;;;;;;18.52;8.82;;;11.70;99.90;;;;;;5018025;28;20259;-86
2023/05/27 07:04:42;;;;;;;22.77;9.00;;;11.80;99.90;;;;;;5017280;28;20269;-86
2023/05/27 07:07:08;;;;;;;25.08;9.52;;;11.90;99.90;;;;;;5017850;28;20189;-86
2023/05/27 07:09:33;;;;;;;20.73;9.57;;;12.00;99.90;;;;;;5017401;28;20764;-86
2023/05/27 07:12:01;;;;;;;18.77;9.07;;;12.10;99.90;;;;;;5018938;28;20176;-86
2023/05/27 07:14:26;;;;;;;19.42;10.73;;;12.20;99.90;;;;;;5019159;28;20696;-86
2023/05/27 07:16:52;;;;;;;23.00;9.65;;;12.30;99.90;;;;;;5017668;28;20176;-85
2023/05/27 07:19:18;;;;;;;20.58;9.95;;;12.30;99.90;;;;;;5018623;28;20227;-85
2023/05/27 07:21:43;;;;;;;23.30;9.73;;;12.30;99.90;;;;;;5019668;28;20183;-86
2023/05/27 07:24:10;;;;;;;22.27;9.93;;;12.40;99.90;;;;;;5018177;28;20278;-86
2023/05/27 07:26:36;;;;;;;21.23;9.18;;;12.50;99.90;;;;;;5018395;28;20190;-86
2023/05/27 07:29:03;;;;;;;17.88;9.45;;;12.60;99.90;;;;;;5017303;28;20179;-85
2023/05/27 07:31:29;;;;;;;20.67;10.10;;;12.80;99.90;;;;;;5017820;28;20176;-85
2023/05/27 07:33:55;;;;;;;22.65;10.40;;;12.90;99.90;;;;;;5019119;28;20188;-86
2023/05/27 07:36:21;;;;;;;20.77;10.18;;;13.10;99.90;;;;;;5017858;28;20249;-86
2023/05/27 07:38:47;;;;;;;24.23;9.20;;;13.10;99.90;;;;;;5018488;28;20632;-86
2023/05/27 07:41:13;;;;;;;15.60;8.50;;;13.20;99.90;;;;;;5018548;28;20211;-86
2023/05/27 07:43:40;;;;;;;19.58;9.13;;;13.30;99.90;;;;;;5018439;28;20184;-86
2023/05/27 07:46:06;;;;;;;23.13;8.98;;;13.40;99.90;;;;;;5019397;28;20549;-86
2023/05/27 07:48:31;;;;;;;23.10;10.38;;;13.50;99.90;;;;;;5020795;28;20192;-86
2023/05/27 07:50:57;;;;;;;21.85;8.50;;;13.60;99.90;;;;;;5020124;28;20257;-86
2023/05/27 07:53:23;;;;;;;17.77;8.18;;;13.70;99.90;;;;;;5018762;28;20175;-86
2023/05/27 07:55:49;;;;;;;19.10;8.80;;;13.70;99.90;;;;;;5017845;28;20203;-85
2023/05/27 07:58:15;;;;;;;21.00;8.95;;;13.80;99.90;;;;;;5017266;28;20632;-86
2023/05/27 08:00:40;;;;;;;19.25;8.10;;;13.80;99.90;;;;;;5017966;28;20182;-84
2023/05/27 08:03:06;;;;;;;18.27;8.25;;;13.90;99.90;;;;;;5017603;28;20184;-85
2023/05/27 08:05:33;;;;;;;20.00;9.00;;;14.00;99.90;;;;;;5017298;28;20235;-85
2023/05/27 08:07:59;;;;;;;20.92;9.20;;;14.10;99.90;;;;;;5019121;28;20586;-85
2023/05/27 08:10:25;;;;;;;19.30;8.70;;;14.20;99.90;;;;;;5017588;28;20742;-85
2023/05/27 08:12:51;;;;;;;18.00;8.05;;;14.30;99.90;;;;;;5016351;28;20191;-85
2023/05/27 08:15:17;;;;;;;13.68;7.68;;;14.30;99.90;;;;;;5018261;28;20266;-85
2023/05/27 08:17:44;;;;;;;21.55;8.98;;;14.40;99.90;;;;;;5017910;28;20183;-85
2023/05/27 08:20:12;;;;;;;20.58;8.07;;;14.60;99.90;;;;;;5017810;28;20206;-85
2023/05/27 08:22:38;;;;;;;15.68;8.30;;;14.70;99.90;;;;;;5018008;28;20267;-84
2023/05/27 08:25:05;;;;;;;20.55;9.05;;;14.80;99.90;;;;;;5018307;28;20190;-85
2023/05/27 08:27:44;;;;;;;18.58;8.90;;;15.00;99.90;;;;;;5018557;28;20186;-85
2023/05/27 08:30:14;;;;;;;20.90;8.60;;;15.40;99.90;;;;;;5017353;28;20196;-85
2023/05/27 08:32:42;;;;;;;18.38;8.27;;;15.70;99.90;;;;;;5017537;28;20203;-85
2023/05/27 08:35:10;;;;;;;15.85;8.00;;;16.30;21.20;;;;;;5017917;28;20192;-85
2023/05/27 08:37:36;;;;;;;19.92;7.90;;;16.80;1.00;;;;;;5016659;28;20257;-85
2023/05/27 08:40:05;;;;;;;19.73;8.02;;;17.10;1.00;;;;;;5016902;28;20233;-85
2023/05/27 08:42:31;;;;;;;19.65;8.50;;;17.40;99.90;;;;;;5018532;28;20195;-84
2023/05/27 08:44:57;;;;;;;18.17;7.60;;;17.60;1.00;;;;;;5017092;28;20207;-85
2023/05/27 08:47:23;;;;;;;16.98;7.35;;;17.70;1.00;;;;;;5016940;28;20192;-84
2023/05/27 08:49:49;;;;;;;20.63;9.05;;;17.70;1.00;;;;;;5017921;28;20295;-84
2023/05/27 08:52:19;;;;;;;15.43;7.95;;;17.70;1.00;;;;;;5017893;28;20199;-85
2023/05/27 08:54:47;;;;;;;19.23;7.53;;;18.00;1.00;;;;;;5018038;28;20593;-85
2023/05/27 08:57:15;;;;;;;18.90;8.35;;;18.10;1.00;;;;;;5015991;28;20180;-85
2023/05/27 08:59:42;;;;;;;16.75;8.27;;;18.20;99.90;;;;;;5016315;28;20184;-85
2023/05/27 09:02:12;;;;;;;20.23;7.68;;;18.40;1.00;;;;;;5016745;28;20249;-85
2023/05/27 09:04:41;;;;;;;18.88;7.43;;;18.70;1.00;;;;;;5016405;28;20695;-86
2023/05/27 09:07:07;;;;;;;18.40;7.88;;;18.60;1.00;;;;;;5016133;28;20183;-86
2023/05/27 09:09:34;;;;;;;18.98;7.82;;;18.60;16.60;;;;;;5016705;28;20219;-85
2023/05/27 09:12:02;;;;;;;18.67;7.40;;;18.80;1.00;;;;;;5015976;28;20180;-86
2023/05/27 09:14:29;;;;;;;23.95;8.95;;;19.00;1.00;;;;;;5015720;28;20266;-85
2023/05/27 09:16:56;;;;;;;16.55;7.78;;;19.20;1.00;;;;;;5015602;28;20176;-85
2023/05/27 09:19:22;;;;;;;20.70;7.07;;;19.40;99.90;;;;;;5016589;28;20175;-86
2023/05/27 09:21:52;;;;;;;15.38;6.68;;;19.60;99.90;;;;;;5015618;28;20179;-86
2023/05/27 09:24:18;;;;;;;17.20;6.97;;;20.00;99.90;;;;;;5015325;28;20540;-86
2023/05/27 09:26:44;;;;;;;17.50;6.82;;;20.20;1.00;;;;;;5015123;28;20182;-86
2023/05/27 09:29:10;;;;;;;16.55;7.28;;;20.40;99.90;;;;;;5014999;28;20214;-86
2023/05/27 09:31:40;;;;;;;15.38;7.10;;;20.40;1.00;;;;;;5015144;28;20207;-87
2023/05/27 09:34:16;;;;;;;18.70;7.55;;;20.10;1.00;;;;;;5016995;28;20187;-85
2023/05/27 09:36:43;;;;;;;15.45;7.18;;;19.90;1.00;;;;;;5017052;28;20536;-85
2023/05/27 09:39:10;;;;;;;20.42;7.55;;;19.90;99.90;;;;;;5015173;28;20187;-85
2023/05/27 09:41:37;;;;;;;15.23;7.30;;;20.10;1.00;;;;;;5015696;28;20184;-86
2023/05/27 09:44:04;;;;;;;17.80;7.38;;;20.10;1.00;;;;;;5015361;28;20207;-86
2023/05/27 09:46:33;;;;;;;16.67;6.95;;;20.20;1.00;;;;;;5016847;28;20188;-85
2023/05/27 09:49:03;;;;;;;15.05;7.10;;;20.20;26.30;;;;;;5016825;28;20168;-85
2023/05/27 09:51:31;;;;;;;17.45;7.28;;;20.50;1.00;;;;;;5015581;28;20176;-85
2023/05/27 09:53:58;;;;;;;22.20;7.47;;;20.60;99.50;;;;;;5015850;28;20246;-83
2023/05/27 09:56:28;;;;;;;21.05;6.78;;;20.50;1.00;;;;;;5017230;28;20172;-85
2023/05/27 09:58:58;;;;;;;14.57;6.32;;;20.40;99.90;;;;;;5018143;28;20568;-84
2023/05/27 10:01:29;;;;;;;15.55;6.95;;;20.30;99.90;;;;;;5016023;28;20175;-85
2023/05/27 10:03:58;;;;;;;23.08;6.88;;;20.50;99.90;;;;;;5017006;28;20246;-85
2023/05/27 10:06:25;;;;;;;17.17;7.40;;;20.60;27.20;;;;;;5017155;28;20168;-85
2023/05/27 10:08:58;;;;;;;16.13;7.65;;;20.80;99.90;;;;;;5017823;28;20176;-84
2023/05/27 10:11:30;;;;;;;17.10;7.20;;;20.50;99.90;;;;;;5017332;28;20191;-85
2023/05/27 10:13:56;;;;;;;12.73;6.40;;;20.50;99.90;;;;;;5016156;28;20626;-85
2023/05/27 10:16:23;;;;;;;18.65;6.57;;;20.60;99.90;;;;;;5017640;28;20179;-85
2023/05/27 10:18:53;;;;;;;12.27;6.57;;;20.40;67.20;;;;;;5016301;28;20167;-86
2023/05/27 10:21:21;;;;;;;18.35;8.27;;;20.10;99.90;;;;;;5015074;28;20595;-85
2023/05/27 10:24:04;;;;;;;18.38;7.63;;;20.00;99.90;;;;;;5014485;28;20269;-85
2023/05/27 10:26:41;;;;;;;18.40;7.00;;;19.80;99.90;;;;;;5014138;28;20190;-85
2023/05/27 10:29:08;;;;;;;16.83;7.95;;;20.00;99.90;;;;;;5013911;28;20183;-85
2023/05/27 10:31:36;;;;;;;14.07;6.50;;;20.10;99.90;;;;;;5015266;28;20175;-86
2023/05/27 10:34:08;;;;;;;16.83;6.88;;;20.20;91.70;;;;;;5015635;28;20198;-85
2023/05/27 10:36:33;;;;;;;18.80;7.05;;;20.40;1.00;;;;;;5013794;28;20172;-85
2023/05/27 10:39:05;;;;;;;19.60;7.22;;;20.50;42.50;;;;;;5015775;28;20254;-85
2023/05/27 10:41:51;;;;;;;15.98;6.75;;;20.50;1.00;;;;;;5015237;28;20208;-85
2023/05/27 10:44:32;;;;;;;14.77;6.70;;;20.60;1.00;;;;;;5015277;28;20286;-85
2023/05/27 10:47:13;;;;;;;16.90;7.03;;;20.70;99.90;;;;;;5015225;28;20184;-85
2023/05/27 10:49:40;;;;;;;18.88;6.97;;;20.70;99.90;;;;;;5016521;28;20187;-85
2023/05/27 10:52:12;;;;;;;17.17;6.85;;;20.90;1.00;;;;;;5019279;28;20579;-85
2023/05/27 10:54:41;;;;;;;16.38;6.80;;;20.60;1.00;;;;;;5017268;28;20203;-85
2023/05/27 10:57:07;;;;;;;17.20;7.57;;;20.60;99.90;;;;;;5016460;28;20263;-84
2023/05/27 10:59:50;;;;;;;17.25;6.55;;;20.50;1.00;;;;;;5017291;28;20637;-84
2023/05/27 11:02:17;;;;;;;21.52;8.23;;;20.60;99.90;;;;;;5015450;28;20186;-84
2023/05/27 11:04:43;;;;;;;15.68;6.88;;;20.50;99.90;;;;;;5014412;28;20574;-85
2023/05/27 11:07:09;;;;;;;13.77;6.72;;;20.60;99.90;;;;;;5015854;28;20259;-85
2023/05/27 11:09:51;;;;;;;11.80;6.18;;;20.70;99.90;;;;;;5016979;28;20707;-85
2023/05/27 11:12:18;;;;;;;16.08;6.03;;;20.60;1.00;;;;;;5014705;28;20643;-84
2023/05/27 11:14:51;;;;;;;15.13;6.32;;;20.70;90.50;;;;;;5018472;28;20196;-84
2023/05/27 11:17:18;;;;;;;15.05;6.32;;;20.90;99.90;;;;;;5015795;28;20633;-85
2023/05/27 11:19:47;;;;;;;14.25;6.00;;;21.10;16.80;;;;;;5015645;28;20553;-85
2023/05/27 11:22:14;;;;;;;15.50;6.07;;;21.30;99.90;;;;;;5016990;28;20192;-85
2023/05/27 11:24:40;;;;;;;15.80;5.78;;;21.40;1.00;;;;;;5015042;28;20199;-84
2023/05/27 11:27:10;;;;;;;14.32;6.10;;;21.40;1.00;;;;;;5020944;28;20184;-85
2023/05/27 11:29:37;;;;;;;18.35;6.10;;;21.50;99.90;;;;;;5019175;28;20275;-84
2023/05/27 11:32:05;;;;;;;14.75;6.18;;;21.50;99.90;;;;;;5018485;28;20184;-84
2023/05/27 11:34:33;;;;;;;13.98;6.43;;;21.50;99.90;;;;;;5018115;28;20542;-84
2023/05/27 11:37:04;;;;;;;13.40;5.90;;;21.40;99.90;;;;;;5018965;28;20656;-83
2023/05/27 11:39:30;;;;;;;16.33;6.15;;;21.30;99.90;;;;;;5018388;28;20230;-84
2023/05/27 11:41:56;;;;;;;14.50;6.32;;;21.50;99.90;;;;;;5017760;28;20192;-84
2023/05/27 11:44:23;;;;;;;15.73;5.97;;;21.50;41.90;;;;;;5018432;28;20275;-83
2023/05/27 11:46:50;;;;;;;17.58;6.45;;;21.20;1.00;;;;;;5020010;28;20202;-84
2023/05/27 11:49:17;;;;;;;18.77;7.25;;;21.20;99.90;;;;;;5020955;28;20176;-83
2023/05/27 11:51:45;;;;;;;18.05;6.20;;;21.20;1.00;;;;;;5020230;28;20301;-84
2023/05/27 11:54:28;;;;;;;14.63;6.00;;;21.50;1.00;;;;;;5019697;28;20195;-83
2023/05/27 11:56:56;;;;;;;12.18;4.97;;;21.30;1.00;;;;;;5019696;28;20168;-85
2023/05/27 11:59:23;;;;;;;19.40;5.97;;;21.50;1.00;;;;;;5020058;28;20180;-85
2023/05/27 12:01:50;;;;;;;13.55;6.05;;;21.60;1.00;;;;;;5021165;28;20179;-83
2023/05/27 12:04:16;;;;;;;14.43;6.03;;;21.80;1.00;;;;;;5022361;28;20612;-84
2023/05/27 12:06:42;;;;;;;18.80;5.82;;;21.70;1.00;;;;;;5020667;28;20234;-83
2023/05/27 12:09:09;;;;;;;17.42;5.57;;;21.30;1.00;;;;;;5018987;28;20191;-84
2023/05/27 12:11:35;;;;;;;15.38;6.18;;;21.40;1.00;;;;;;5020097;28;20172;-84
2023/05/27 12:14:01;;;;;;;10.63;4.88;;;21.70;1.00;;;;;;5018769;28;20291;-85
2023/05/27 12:16:27;;;;;;;16.45;5.93;;;21.60;1.00;;;;;;5016802;28;20212;-85
2023/05/27 12:18:53;;;;;;;14.43;5.72;;;21.90;1.00;;;;;;5018665;28;20690;-85
2023/05/27 12:21:20;;;;;;;17.23;5.90;;;21.90;1.00;;;;;;5016961;28;20179;-85
2023/05/27 12:23:46;;;;;;;10.82;5.70;;;22.20;1.00;;;;;;5018156;28;20176;-84
2023/05/27 12:26:14;;;;;;;11.60;5.30;;;22.00;99.90;;;;;;5016964;28;20230;-84
2023/05/27 12:28:41;;;;;;;13.05;5.85;;;22.00;99.90;;;;;;5018891;28;20175;-85
2023/05/27 12:31:07;;;;;;;13.88;5.32;;;22.00;99.90;;;;;;5018045;28;20195;-85
2023/05/27 12:33:33;;;;;;;13.70;6.15;;;22.10;99.90;;;;;;5017660;28;20176;-85
2023/05/27 12:35:59;;;;;;;13.43;5.35;;;22.20;99.90;;;;;;5016223;28;20211;-85
2023/05/27 12:38:25;;;;;;;15.73;5.88;;;22.20;99.90;;;;;;5016386;28;20176;-85
2023/05/27 12:40:51;;;;;;;11.30;5.50;;;22.10;99.90;;;;;;5021324;28;20156;-84
2023/05/27 12:43:20;;;;;;;12.23;5.50;;;22.40;99.90;;;;;;5000651;28;20183;-84
2023/05/27 12:45:46;;;;;;;12.43;5.63;;;22.60;99.90;;;;;;5018289;28;20203;-87